sensor_id;sensor_type;location;lat;lon;timestamp;P1;durP1;ratioP1;P2;durP2;ratioP2
20611;SDS011;10465;42.686;23.364;2023-02-22T00:00:49;20.60;;;12.05;;
20611;SDS011;10465;42.686;23.364;2023-02-22T00:05:42;20.35;;;11.77;;
20611;SDS011;10465;42.686;23.364;2023-02-22T00:08:11;20.83;;;12.48;;
20611;SDS011;10465;42.686;23.364;2023-02-22T00:10:38;19.90;;;12.02;;
20611;SDS011;10465;42.686;23.364;2023-02-22T00:13:05;20.20;;;11.63;;
20611;SDS011;10465;42.686;23.364;2023-02-22T00:15:32;22.17;;;12.27;;
20611;SDS011;10465;42.686;23.364;2023-02-22T00:17:59;21.80;;;12.38;;
20611;SDS011;10465;42.686;23.364;2023-02-22T00:20:25;19.50;;;11.77;;
20611;SDS011;10465;42.686;23.364;2023-02-22T00:22:51;19.83;;;11.65;;
20611;SDS011;10465;42.686;23.364;2023-02-22T00:25:18;15.80;;;10.30;;
20611;SDS011;10465;42.686;23.364;2023-02-22T00:27:45;15.88;;;10.65;;
20611;SDS011;10465;42.686;23.364;2023-02-22T00:30:21;17.02;;;9.85;;
20611;SDS011;10465;42.686;23.364;2023-02-22T00:32:48;15.13;;;9.85;;
20611;SDS011;10465;42.686;23.364;2023-02-22T00:35:15;14.73;;;9.68;;
20611;SDS011;10465;42.686;23.364;2023-02-22T00:37:42;18.30;;;10.13;;
20611;SDS011;10465;42.686;23.364;2023-02-22T00:40:13;19.27;;;10.25;;
20611;SDS011;10465;42.686;23.364;2023-02-22T00:42:41;15.77;;;9.60;;
20611;SDS011;10465;42.686;23.364;2023-02-22T00:45:07;16.17;;;9.88;;
20611;SDS011;10465;42.686;23.364;2023-02-22T00:47:32;16.80;;;10.50;;
20611;SDS011;10465;42.686;23.364;2023-02-22T00:49:58;16.52;;;10.38;;
20611;SDS011;10465;42.686;23.364;2023-02-22T00:52:24;19.00;;;11.15;;
20611;SDS011;10465;42.686;23.364;2023-02-22T00:54:50;19.15;;;10.07;;
20611;SDS011;10465;42.686;23.364;2023-02-22T00:57:16;17.60;;;9.90;;
20611;SDS011;10465;42.686;23.364;2023-02-22T00:59:43;15.93;;;9.98;;
20611;SDS011;10465;42.686;23.364;2023-02-22T01:02:08;15.32;;;10.10;;
20611;SDS011;10465;42.686;23.364;2023-02-22T01:04:33;14.52;;;9.32;;
20611;SDS011;10465;42.686;23.364;2023-02-22T01:06:59;13.77;;;8.70;;
20611;SDS011;10465;42.686;23.364;2023-02-22T01:09:25;17.42;;;10.73;;
20611;SDS011;10465;42.686;23.364;2023-02-22T01:11:54;16.80;;;9.73;;
20611;SDS011;10465;42.686;23.364;2023-02-22T01:14:21;15.93;;;10.23;;
20611;SDS011;10465;42.686;23.364;2023-02-22T01:16:48;15.48;;;10.27;;
20611;SDS011;10465;42.686;23.364;2023-02-22T01:19:14;16.42;;;10.43;;
20611;SDS011;10465;42.686;23.364;2023-02-22T01:21:40;14.10;;;9.88;;
20611;SDS011;10465;42.686;23.364;2023-02-22T01:24:06;14.93;;;10.55;;
20611;SDS011;10465;42.686;23.364;2023-02-22T01:26:32;20.88;;;10.05;;
20611;SDS011;10465;42.686;23.364;2023-02-22T01:28:58;18.77;;;10.93;;
20611;SDS011;10465;42.686;23.364;2023-02-22T01:31:23;16.73;;;11.20;;
20611;SDS011;10465;42.686;23.364;2023-02-22T01:33:49;15.02;;;9.85;;
20611;SDS011;10465;42.686;23.364;2023-02-22T01:36:17;17.58;;;10.55;;
20611;SDS011;10465;42.686;23.364;2023-02-22T01:38:43;26.40;;;15.02;;
20611;SDS011;10465;42.686;23.364;2023-02-22T01:41:09;23.42;;;13.20;;
20611;SDS011;10465;42.686;23.364;2023-02-22T01:43:36;28.15;;;16.17;;
20611;SDS011;10465;42.686;23.364;2023-02-22T01:46:06;35.15;;;19.30;;
20611;SDS011;10465;42.686;23.364;2023-02-22T01:48:47;31.88;;;18.13;;
20611;SDS011;10465;42.686;23.364;2023-02-22T01:51:20;31.83;;;19.10;;
20611;SDS011;10465;42.686;23.364;2023-02-22T01:56:38;34.30;;;20.25;;
20611;SDS011;10465;42.686;23.364;2023-02-22T01:59:11;34.50;;;19.60;;
20611;SDS011;10465;42.686;23.364;2023-02-22T02:01:38;33.78;;;19.45;;
20611;SDS011;10465;42.686;23.364;2023-02-22T02:04:09;31.67;;;19.70;;
20611;SDS011;10465;42.686;23.364;2023-02-22T02:06:41;36.55;;;18.48;;
20611;SDS011;10465;42.686;23.364;2023-02-22T02:09:12;36.78;;;18.42;;
20611;SDS011;10465;42.686;23.364;2023-02-22T02:11:39;30.75;;;18.58;;
20611;SDS011;10465;42.686;23.364;2023-02-22T02:14:06;33.70;;;18.00;;
20611;SDS011;10465;42.686;23.364;2023-02-22T02:16:37;33.72;;;17.95;;
20611;SDS011;10465;42.686;23.364;2023-02-22T02:19:08;32.17;;;17.63;;
20611;SDS011;10465;42.686;23.364;2023-02-22T02:27:25;25.42;;;15.55;;
20611;SDS011;10465;42.686;23.364;2023-02-22T02:30:24;23.27;;;14.30;;
20611;SDS011;10465;42.686;23.364;2023-02-22T02:38:45;27.83;;;15.48;;
20611;SDS011;10465;42.686;23.364;2023-02-22T02:44:02;22.25;;;13.30;;
20611;SDS011;10465;42.686;23.364;2023-02-22T02:46:36;23.95;;;13.88;;
20611;SDS011;10465;42.686;23.364;2023-02-22T02:49:18;23.85;;;14.27;;
20611;SDS011;10465;42.686;23.364;2023-02-22T02:51:49;22.08;;;14.30;;
20611;SDS011;10465;42.686;23.364;2023-02-22T02:54:18;24.42;;;12.88;;
20611;SDS011;10465;42.686;23.364;2023-02-22T02:56:45;21.80;;;12.48;;
20611;SDS011;10465;42.686;23.364;2023-02-22T03:26:55;25.90;;;12.88;;
20611;SDS011;10465;42.686;23.364;2023-02-22T03:29:45;20.55;;;11.70;;
20611;SDS011;10465;42.686;23.364;2023-02-22T03:32:19;20.00;;;11.30;;
20611;SDS011;10465;42.686;23.364;2023-02-22T03:34:53;19.67;;;11.45;;
20611;SDS011;10465;42.686;23.364;2023-02-22T03:37:24;16.70;;;11.07;;
20611;SDS011;10465;42.686;23.364;2023-02-22T03:39:54;22.58;;;11.63;;
20611;SDS011;10465;42.686;23.364;2023-02-22T03:42:25;20.50;;;11.95;;
20611;SDS011;10465;42.686;23.364;2023-02-22T03:44:56;17.70;;;11.60;;
20611;SDS011;10465;42.686;23.364;2023-02-22T03:47:30;19.30;;;11.95;;
20611;SDS011;10465;42.686;23.364;2023-02-22T03:50:14;19.13;;;11.70;;
20611;SDS011;10465;42.686;23.364;2023-02-22T03:52:43;18.40;;;10.50;;
20611;SDS011;10465;42.686;23.364;2023-02-22T03:55:11;18.08;;;10.25;;
20611;SDS011;10465;42.686;23.364;2023-02-22T03:57:40;21.27;;;12.43;;
20611;SDS011;10465;42.686;23.364;2023-02-22T04:00:11;19.40;;;10.82;;
20611;SDS011;10465;42.686;23.364;2023-02-22T04:02:41;20.27;;;11.93;;
20611;SDS011;10465;42.686;23.364;2023-02-22T04:05:06;18.02;;;11.68;;
20611;SDS011;10465;42.686;23.364;2023-02-22T04:07:32;20.50;;;12.50;;
20611;SDS011;10465;42.686;23.364;2023-02-22T04:09:58;23.30;;;13.48;;
20611;SDS011;10465;42.686;23.364;2023-02-22T04:12:26;23.00;;;14.30;;
20611;SDS011;10465;42.686;23.364;2023-02-22T04:14:51;22.45;;;14.55;;
20611;SDS011;10465;42.686;23.364;2023-02-22T04:17:17;25.77;;;15.98;;
20611;SDS011;10465;42.686;23.364;2023-02-22T04:19:42;27.15;;;17.08;;
20611;SDS011;10465;42.686;23.364;2023-02-22T04:22:09;30.40;;;19.35;;
20611;SDS011;10465;42.686;23.364;2023-02-22T04:24:35;38.53;;;22.23;;
20611;SDS011;10465;42.686;23.364;2023-02-22T04:27:01;35.88;;;20.92;;
20611;SDS011;10465;42.686;23.364;2023-02-22T04:29:27;34.45;;;20.60;;
20611;SDS011;10465;42.686;23.364;2023-02-22T04:31:53;35.78;;;20.92;;
20611;SDS011;10465;42.686;23.364;2023-02-22T04:34:19;33.90;;;20.30;;
20611;SDS011;10465;42.686;23.364;2023-02-22T04:36:44;31.40;;;17.95;;
20611;SDS011;10465;42.686;23.364;2023-02-22T04:39:10;31.38;;;16.60;;
20611;SDS011;10465;42.686;23.364;2023-02-22T04:41:35;28.67;;;15.70;;
20611;SDS011;10465;42.686;23.364;2023-02-22T04:44:01;32.33;;;17.08;;
20611;SDS011;10465;42.686;23.364;2023-02-22T04:46:26;31.95;;;17.77;;
20611;SDS011;10465;42.686;23.364;2023-02-22T04:48:52;36.97;;;18.85;;
20611;SDS011;10465;42.686;23.364;2023-02-22T04:51:18;28.88;;;17.40;;
20611;SDS011;10465;42.686;23.364;2023-02-22T04:53:44;33.50;;;18.15;;
20611;SDS011;10465;42.686;23.364;2023-02-22T04:56:10;31.60;;;18.02;;
20611;SDS011;10465;42.686;23.364;2023-02-22T04:58:35;32.13;;;18.17;;
20611;SDS011;10465;42.686;23.364;2023-02-22T05:01:01;33.25;;;17.65;;
20611;SDS011;10465;42.686;23.364;2023-02-22T05:03:27;31.58;;;16.63;;
20611;SDS011;10465;42.686;23.364;2023-02-22T05:05:52;31.50;;;17.20;;
20611;SDS011;10465;42.686;23.364;2023-02-22T05:08:18;32.88;;;16.38;;
20611;SDS011;10465;42.686;23.364;2023-02-22T05:10:44;32.72;;;17.02;;
20611;SDS011;10465;42.686;23.364;2023-02-22T05:13:09;27.05;;;16.52;;
20611;SDS011;10465;42.686;23.364;2023-02-22T05:15:35;27.58;;;15.85;;
20611;SDS011;10465;42.686;23.364;2023-02-22T05:18:00;23.52;;;14.70;;
20611;SDS011;10465;42.686;23.364;2023-02-22T05:20:28;20.80;;;13.10;;
20611;SDS011;10465;42.686;23.364;2023-02-22T05:22:55;23.15;;;13.65;;
20611;SDS011;10465;42.686;23.364;2023-02-22T05:25:21;20.77;;;13.55;;
20611;SDS011;10465;42.686;23.364;2023-02-22T05:27:51;24.55;;;12.80;;
20611;SDS011;10465;42.686;23.364;2023-02-22T05:30:19;25.75;;;13.23;;
20611;SDS011;10465;42.686;23.364;2023-02-22T05:32:50;24.33;;;12.48;;
20611;SDS011;10465;42.686;23.364;2023-02-22T05:35:16;29.38;;;13.52;;
20611;SDS011;10465;42.686;23.364;2023-02-22T05:37:43;18.88;;;11.38;;
20611;SDS011;10465;42.686;23.364;2023-02-22T05:40:08;25.25;;;12.27;;
20611;SDS011;10465;42.686;23.364;2023-02-22T05:42:34;26.60;;;14.38;;
20611;SDS011;10465;42.686;23.364;2023-02-22T05:44:59;24.27;;;13.45;;
20611;SDS011;10465;42.686;23.364;2023-02-22T05:47:25;20.17;;;12.57;;
20611;SDS011;10465;42.686;23.364;2023-02-22T05:49:51;26.73;;;12.65;;
20611;SDS011;10465;42.686;23.364;2023-02-22T05:52:16;20.63;;;11.90;;
20611;SDS011;10465;42.686;23.364;2023-02-22T05:54:42;22.95;;;12.52;;
20611;SDS011;10465;42.686;23.364;2023-02-22T05:57:07;25.60;;;14.93;;
20611;SDS011;10465;42.686;23.364;2023-02-22T05:59:33;25.17;;;13.43;;
20611;SDS011;10465;42.686;23.364;2023-02-22T06:01:58;26.30;;;12.55;;
20611;SDS011;10465;42.686;23.364;2023-02-22T06:04:24;28.13;;;14.85;;
20611;SDS011;10465;42.686;23.364;2023-02-22T06:06:49;35.42;;;15.15;;
20611;SDS011;10465;42.686;23.364;2023-02-22T06:09:15;27.13;;;15.00;;
20611;SDS011;10465;42.686;23.364;2023-02-22T06:11:40;27.67;;;14.88;;
20611;SDS011;10465;42.686;23.364;2023-02-22T06:14:06;24.85;;;13.75;;
20611;SDS011;10465;42.686;23.364;2023-02-22T06:16:32;23.80;;;13.85;;
20611;SDS011;10465;42.686;23.364;2023-02-22T06:18:57;30.23;;;17.55;;
20611;SDS011;10465;42.686;23.364;2023-02-22T06:21:24;28.15;;;13.73;;
20611;SDS011;10465;42.686;23.364;2023-02-22T06:23:49;16.42;;;11.10;;
20611;SDS011;10465;42.686;23.364;2023-02-22T06:26:18;17.88;;;9.20;;
20611;SDS011;10465;42.686;23.364;2023-02-22T06:28:46;21.83;;;10.75;;
20611;SDS011;10465;42.686;23.364;2023-02-22T06:31:12;21.23;;;10.70;;
20611;SDS011;10465;42.686;23.364;2023-02-22T06:33:38;16.83;;;10.13;;
20611;SDS011;10465;42.686;23.364;2023-02-22T06:36:03;18.63;;;10.63;;
20611;SDS011;10465;42.686;23.364;2023-02-22T06:38:29;19.17;;;11.38;;
20611;SDS011;10465;42.686;23.364;2023-02-22T06:40:55;25.50;;;10.98;;
20611;SDS011;10465;42.686;23.364;2023-02-22T06:43:21;19.40;;;10.98;;
20611;SDS011;10465;42.686;23.364;2023-02-22T06:45:48;19.65;;;10.63;;
20611;SDS011;10465;42.686;23.364;2023-02-22T06:48:14;23.85;;;13.02;;
20611;SDS011;10465;42.686;23.364;2023-02-22T06:50:39;35.78;;;18.33;;
20611;SDS011;10465;42.686;23.364;2023-02-22T06:53:05;36.20;;;20.40;;
20611;SDS011;10465;42.686;23.364;2023-02-22T06:55:31;35.70;;;20.23;;
20611;SDS011;10465;42.686;23.364;2023-02-22T06:57:58;36.38;;;20.92;;
20611;SDS011;10465;42.686;23.364;2023-02-22T07:00:25;42.85;;;21.33;;
20611;SDS011;10465;42.686;23.364;2023-02-22T07:02:52;42.22;;;22.20;;
20611;SDS011;10465;42.686;23.364;2023-02-22T07:05:19;39.33;;;21.25;;
20611;SDS011;10465;42.686;23.364;2023-02-22T07:07:46;37.63;;;19.60;;
20611;SDS011;10465;42.686;23.364;2023-02-22T07:10:19;32.45;;;18.85;;
20611;SDS011;10465;42.686;23.364;2023-02-22T07:12:52;32.50;;;17.05;;
20611;SDS011;10465;42.686;23.364;2023-02-22T07:15:21;26.17;;;14.68;;
20611;SDS011;10465;42.686;23.364;2023-02-22T07:17:49;25.73;;;14.77;;
20611;SDS011;10465;42.686;23.364;2023-02-22T07:20:17;32.00;;;18.30;;
20611;SDS011;10465;42.686;23.364;2023-02-22T07:22:44;47.13;;;24.92;;
20611;SDS011;10465;42.686;23.364;2023-02-22T07:25:10;51.45;;;25.67;;
20611;SDS011;10465;42.686;23.364;2023-02-22T07:27:39;47.75;;;26.20;;
20611;SDS011;10465;42.686;23.364;2023-02-22T07:30:27;44.05;;;22.52;;
20611;SDS011;10465;42.686;23.364;2023-02-22T07:32:56;37.97;;;21.83;;
20611;SDS011;10465;42.686;23.364;2023-02-22T07:35:24;34.72;;;21.05;;
20611;SDS011;10465;42.686;23.364;2023-02-22T07:37:52;33.40;;;20.40;;
20611;SDS011;10465;42.686;23.364;2023-02-22T07:40:18;26.63;;;15.00;;
20611;SDS011;10465;42.686;23.364;2023-02-22T07:42:57;27.90;;;13.75;;
20611;SDS011;10465;42.686;23.364;2023-02-22T07:45:33;23.13;;;13.85;;
20611;SDS011;10465;42.686;23.364;2023-02-22T07:48:00;28.15;;;14.68;;
20611;SDS011;10465;42.686;23.364;2023-02-22T07:50:27;29.27;;;15.63;;
20611;SDS011;10465;42.686;23.364;2023-02-22T07:52:55;37.65;;;18.35;;
20611;SDS011;10465;42.686;23.364;2023-02-22T07:55:24;37.50;;;19.17;;
20611;SDS011;10465;42.686;23.364;2023-02-22T07:57:51;30.55;;;16.77;;
20611;SDS011;10465;42.686;23.364;2023-02-22T08:00:23;29.95;;;17.30;;
20611;SDS011;10465;42.686;23.364;2023-02-22T08:02:53;29.85;;;16.75;;
20611;SDS011;10465;42.686;23.364;2023-02-22T08:05:20;28.95;;;17.30;;
20611;SDS011;10465;42.686;23.364;2023-02-22T08:07:48;34.33;;;17.73;;
20611;SDS011;10465;42.686;23.364;2023-02-22T08:10:14;34.40;;;17.83;;
20611;SDS011;10465;42.686;23.364;2023-02-22T08:12:42;35.50;;;18.33;;
20611;SDS011;10465;42.686;23.364;2023-02-22T08:15:08;31.77;;;19.38;;
20611;SDS011;10465;42.686;23.364;2023-02-22T08:17:38;31.95;;;18.92;;
20611;SDS011;10465;42.686;23.364;2023-02-22T08:20:04;29.42;;;19.15;;
20611;SDS011;10465;42.686;23.364;2023-02-22T08:22:30;30.98;;;18.45;;
20611;SDS011;10465;42.686;23.364;2023-02-22T08:24:55;32.70;;;20.02;;
20611;SDS011;10465;42.686;23.364;2023-02-22T08:27:24;33.70;;;18.95;;
20611;SDS011;10465;42.686;23.364;2023-02-22T08:29:51;30.98;;;19.00;;
20611;SDS011;10465;42.686;23.364;2023-02-22T08:32:17;37.53;;;20.27;;
20611;SDS011;10465;42.686;23.364;2023-02-22T08:34:42;32.50;;;17.98;;
20611;SDS011;10465;42.686;23.364;2023-02-22T08:37:09;33.50;;;20.63;;
20611;SDS011;10465;42.686;23.364;2023-02-22T08:39:35;30.65;;;20.73;;
20611;SDS011;10465;42.686;23.364;2023-02-22T08:42:00;33.20;;;22.08;;
20611;SDS011;10465;42.686;23.364;2023-02-22T08:44:26;31.90;;;19.40;;
20611;SDS011;10465;42.686;23.364;2023-02-22T08:46:51;34.28;;;20.23;;
20611;SDS011;10465;42.686;23.364;2023-02-22T08:49:17;39.10;;;22.45;;
20611;SDS011;10465;42.686;23.364;2023-02-22T08:51:42;34.90;;;21.52;;
20611;SDS011;10465;42.686;23.364;2023-02-22T08:54:08;33.88;;;20.73;;
20611;SDS011;10465;42.686;23.364;2023-02-22T08:56:33;29.50;;;17.30;;
20611;SDS011;10465;42.686;23.364;2023-02-22T08:58:58;28.00;;;17.45;;
20611;SDS011;10465;42.686;23.364;2023-02-22T09:01:24;27.75;;;18.27;;
20611;SDS011;10465;42.686;23.364;2023-02-22T09:03:50;25.90;;;16.08;;
20611;SDS011;10465;42.686;23.364;2023-02-22T09:06:16;25.20;;;16.05;;
20611;SDS011;10465;42.686;23.364;2023-02-22T09:08:43;22.48;;;14.43;;
20611;SDS011;10465;42.686;23.364;2023-02-22T09:11:08;27.00;;;15.30;;
20611;SDS011;10465;42.686;23.364;2023-02-22T09:13:34;21.58;;;12.07;;
20611;SDS011;10465;42.686;23.364;2023-02-22T09:15:59;19.80;;;11.45;;
20611;SDS011;10465;42.686;23.364;2023-02-22T09:18:26;18.40;;;12.20;;
20611;SDS011;10465;42.686;23.364;2023-02-22T09:20:52;16.13;;;9.70;;
20611;SDS011;10465;42.686;23.364;2023-02-22T09:23:18;16.35;;;8.27;;
20611;SDS011;10465;42.686;23.364;2023-02-22T09:25:47;13.95;;;8.20;;
20611;SDS011;10465;42.686;23.364;2023-02-22T09:28:13;13.15;;;7.90;;
20611;SDS011;10465;42.686;23.364;2023-02-22T09:30:39;11.27;;;8.45;;
20611;SDS011;10465;42.686;23.364;2023-02-22T09:35:30;16.75;;;8.50;;
20611;SDS011;10465;42.686;23.364;2023-02-22T09:38:00;11.10;;;6.93;;
20611;SDS011;10465;42.686;23.364;2023-02-22T09:40:27;9.23;;;6.03;;
20611;SDS011;10465;42.686;23.364;2023-02-22T09:42:59;7.75;;;5.95;;
20611;SDS011;10465;42.686;23.364;2023-02-22T09:45:34;8.35;;;5.45;;
20611;SDS011;10465;42.686;23.364;2023-02-22T09:48:18;8.25;;;5.30;;
20611;SDS011;10465;42.686;23.364;2023-02-22T09:50:44;5.75;;;4.18;;
20611;SDS011;10465;42.686;23.364;2023-02-22T09:53:20;6.88;;;3.80;;
20611;SDS011;10465;42.686;23.364;2023-02-22T09:55:57;5.25;;;4.07;;
20611;SDS011;10465;42.686;23.364;2023-02-22T10:03:55;7.30;;;4.25;;
20611;SDS011;10465;42.686;23.364;2023-02-22T10:06:28;7.25;;;4.43;;
20611;SDS011;10465;42.686;23.364;2023-02-22T10:08:56;9.80;;;5.07;;
20611;SDS011;10465;42.686;23.364;2023-02-22T10:14:15;5.80;;;3.60;;
20611;SDS011;10465;42.686;23.364;2023-02-22T10:25:20;5.20;;;3.45;;
20611;SDS011;10465;42.686;23.364;2023-02-22T10:27:56;5.15;;;3.60;;
20611;SDS011;10465;42.686;23.364;2023-02-22T10:30:34;5.68;;;3.83;;
20611;SDS011;10465;42.686;23.364;2023-02-22T10:33:13;7.35;;;4.28;;
20611;SDS011;10465;42.686;23.364;2023-02-22T10:35:44;8.35;;;4.32;;
20611;SDS011;10465;42.686;23.364;2023-02-22T10:38:12;7.07;;;4.20;;
20611;SDS011;10465;42.686;23.364;2023-02-22T10:40:49;7.95;;;4.32;;
20611;SDS011;10465;42.686;23.364;2023-02-22T10:43:18;8.15;;;3.83;;
20611;SDS011;10465;42.686;23.364;2023-02-22T10:45:44;7.32;;;4.25;;
20611;SDS011;10465;42.686;23.364;2023-02-22T10:48:14;6.00;;;4.15;;
20611;SDS011;10465;42.686;23.364;2023-02-22T10:50:42;5.95;;;3.83;;
20611;SDS011;10465;42.686;23.364;2023-02-22T10:53:10;6.15;;;3.95;;
20611;SDS011;10465;42.686;23.364;2023-02-22T10:56:03;6.15;;;3.40;;
20611;SDS011;10465;42.686;23.364;2023-02-22T11:04:15;5.03;;;3.40;;
20611;SDS011;10465;42.686;23.364;2023-02-22T11:06:44;6.22;;;4.22;;
20611;SDS011;10465;42.686;23.364;2023-02-22T11:09:16;5.47;;;3.60;;
20611;SDS011;10465;42.686;23.364;2023-02-22T11:11:46;4.50;;;3.40;;
20611;SDS011;10465;42.686;23.364;2023-02-22T11:14:23;6.80;;;3.90;;
20611;SDS011;10465;42.686;23.364;2023-02-22T11:16:52;6.82;;;3.55;;
20611;SDS011;10465;42.686;23.364;2023-02-22T11:19:21;7.10;;;3.45;;
20611;SDS011;10465;42.686;23.364;2023-02-22T11:22:11;4.60;;;3.50;;
20611;SDS011;10465;42.686;23.364;2023-02-22T11:24:49;6.32;;;3.72;;
20611;SDS011;10465;42.686;23.364;2023-02-22T11:27:41;4.20;;;3.13;;
20611;SDS011;10465;42.686;23.364;2023-02-22T11:32:49;9.07;;;3.33;;
20611;SDS011;10465;42.686;23.364;2023-02-22T11:35:22;5.68;;;3.35;;
20611;SDS011;10465;42.686;23.364;2023-02-22T11:41:14;6.60;;;3.08;;
20611;SDS011;10465;42.686;23.364;2023-02-22T11:44:26;5.22;;;3.75;;
20611;SDS011;10465;42.686;23.364;2023-02-22T11:46:54;9.07;;;3.35;;
20611;SDS011;10465;42.686;23.364;2023-02-22T11:49:30;5.50;;;3.47;;
20611;SDS011;10465;42.686;23.364;2023-02-22T11:54:43;5.57;;;3.42;;
20611;SDS011;10465;42.686;23.364;2023-02-22T12:05:39;4.60;;;3.00;;
20611;SDS011;10465;42.686;23.364;2023-02-22T12:19:48;5.93;;;3.33;;
20611;SDS011;10465;42.686;23.364;2023-02-22T12:22:10;4.10;;;3.03;;
20611;SDS011;10465;42.686;23.364;2023-02-22T12:27:47;2.80;;;2.47;;
20611;SDS011;10465;42.686;23.364;2023-02-22T12:33:03;5.00;;;2.80;;
20611;SDS011;10465;42.686;23.364;2023-02-22T12:35:36;6.55;;;2.28;;
20611;SDS011;10465;42.686;23.364;2023-02-22T12:41:03;3.13;;;2.38;;
20611;SDS011;10465;42.686;23.364;2023-02-22T12:43:52;3.72;;;2.58;;
20611;SDS011;10465;42.686;23.364;2023-02-22T12:46:33;3.47;;;2.35;;
20611;SDS011;10465;42.686;23.364;2023-02-22T12:49:09;2.70;;;2.25;;
20611;SDS011;10465;42.686;23.364;2023-02-22T13:00:46;6.03;;;2.30;;
20611;SDS011;10465;42.686;23.364;2023-02-22T13:05:39;3.03;;;2.20;;
20611;SDS011;10465;42.686;23.364;2023-02-22T13:24:03;3.42;;;2.10;;
20611;SDS011;10465;42.686;23.364;2023-02-22T13:29:12;3.70;;;2.72;;
20611;SDS011;10465;42.686;23.364;2023-02-22T13:37:44;3.78;;;2.65;;
20611;SDS011;10465;42.686;23.364;2023-02-22T13:56:50;3.65;;;3.03;;
20611;SDS011;10465;42.686;23.364;2023-02-22T13:59:25;4.35;;;2.97;;
20611;SDS011;10465;42.686;23.364;2023-02-22T14:01:54;3.28;;;2.63;;
20611;SDS011;10465;42.686;23.364;2023-02-22T14:06:56;6.15;;;2.72;;
20611;SDS011;10465;42.686;23.364;2023-02-22T14:12:27;2.83;;;2.40;;
20611;SDS011;10465;42.686;23.364;2023-02-22T14:20:34;4.35;;;3.15;;
20611;SDS011;10465;42.686;23.364;2023-02-22T14:29:02;4.00;;;3.17;;
20611;SDS011;10465;42.686;23.364;2023-02-22T14:36:42;3.85;;;2.88;;
20611;SDS011;10465;42.686;23.364;2023-02-22T14:39:33;4.47;;;2.83;;
20611;SDS011;10465;42.686;23.364;2023-02-22T14:47:40;5.25;;;3.50;;
20611;SDS011;10465;42.686;23.364;2023-02-22T14:52:47;3.70;;;3.03;;
20611;SDS011;10465;42.686;23.364;2023-02-22T14:55:22;8.13;;;3.10;;
20611;SDS011;10465;42.686;23.364;2023-02-22T15:03:01;5.00;;;2.90;;
20611;SDS011;10465;42.686;23.364;2023-02-22T15:05:33;4.78;;;2.78;;
20611;SDS011;10465;42.686;23.364;2023-02-22T15:08:03;4.72;;;3.10;;
20611;SDS011;10465;42.686;23.364;2023-02-22T15:10:38;5.30;;;2.90;;
20611;SDS011;10465;42.686;23.364;2023-02-22T15:13:13;4.28;;;3.38;;
20611;SDS011;10465;42.686;23.364;2023-02-22T15:15:40;4.85;;;3.50;;
20611;SDS011;10465;42.686;23.364;2023-02-22T15:18:16;4.82;;;3.55;;
20611;SDS011;10465;42.686;23.364;2023-02-22T15:20:46;6.47;;;3.90;;
20611;SDS011;10465;42.686;23.364;2023-02-22T15:23:14;5.97;;;3.90;;
20611;SDS011;10465;42.686;23.364;2023-02-22T15:25:40;6.20;;;4.18;;
20611;SDS011;10465;42.686;23.364;2023-02-22T15:28:13;5.40;;;3.65;;
20611;SDS011;10465;42.686;23.364;2023-02-22T15:30:39;11.95;;;4.20;;
20611;SDS011;10465;42.686;23.364;2023-02-22T15:33:09;6.82;;;4.35;;
20611;SDS011;10465;42.686;23.364;2023-02-22T15:35:37;9.18;;;5.00;;
20611;SDS011;10465;42.686;23.364;2023-02-22T15:40:35;7.72;;;5.85;;
20611;SDS011;10465;42.686;23.364;2023-02-22T15:43:02;8.77;;;6.15;;
20611;SDS011;10465;42.686;23.364;2023-02-22T15:45:34;8.85;;;6.78;;
20611;SDS011;10465;42.686;23.364;2023-02-22T15:48:07;8.95;;;6.68;;
20611;SDS011;10465;42.686;23.364;2023-02-22T15:50:34;6.80;;;5.80;;
20611;SDS011;10465;42.686;23.364;2023-02-22T15:55:35;10.73;;;6.80;;
20611;SDS011;10465;42.686;23.364;2023-02-22T16:03:36;11.57;;;6.28;;
20611;SDS011;10465;42.686;23.364;2023-02-22T16:06:09;13.45;;;7.65;;
20611;SDS011;10465;42.686;23.364;2023-02-22T16:08:46;13.23;;;7.18;;
20611;SDS011;10465;42.686;23.364;2023-02-22T16:11:15;9.07;;;6.63;;
20611;SDS011;10465;42.686;23.364;2023-02-22T16:13:53;11.45;;;7.80;;
20611;SDS011;10465;42.686;23.364;2023-02-22T16:16:23;11.65;;;7.05;;
20611;SDS011;10465;42.686;23.364;2023-02-22T16:18:53;10.60;;;6.88;;
20611;SDS011;10465;42.686;23.364;2023-02-22T16:22:01;12.82;;;7.95;;
20611;SDS011;10465;42.686;23.364;2023-02-22T16:24:30;10.82;;;7.13;;
20611;SDS011;10465;42.686;23.364;2023-02-22T16:27:00;10.57;;;6.78;;
20611;SDS011;10465;42.686;23.364;2023-02-22T16:29:35;10.05;;;6.57;;
20611;SDS011;10465;42.686;23.364;2023-02-22T16:32:00;10.02;;;7.00;;
20611;SDS011;10465;42.686;23.364;2023-02-22T16:34:26;11.30;;;6.35;;
20611;SDS011;10465;42.686;23.364;2023-02-22T16:36:51;10.32;;;6.88;;
20611;SDS011;10465;42.686;23.364;2023-02-22T16:39:22;8.57;;;6.80;;
20611;SDS011;10465;42.686;23.364;2023-02-22T16:41:49;10.25;;;5.88;;
20611;SDS011;10465;42.686;23.364;2023-02-22T16:44:15;10.82;;;6.68;;
20611;SDS011;10465;42.686;23.364;2023-02-22T16:46:41;10.32;;;7.25;;
20611;SDS011;10465;42.686;23.364;2023-02-22T16:49:11;9.40;;;6.90;;
20611;SDS011;10465;42.686;23.364;2023-02-22T16:51:42;9.70;;;7.22;;
20611;SDS011;10465;42.686;23.364;2023-02-22T16:54:12;12.27;;;7.18;;
20611;SDS011;10465;42.686;23.364;2023-02-22T16:56:43;12.77;;;7.85;;
20611;SDS011;10465;42.686;23.364;2023-02-22T16:59:10;8.77;;;7.10;;
20611;SDS011;10465;42.686;23.364;2023-02-22T17:01:38;13.40;;;7.43;;
20611;SDS011;10465;42.686;23.364;2023-02-22T17:04:20;13.00;;;8.00;;
20611;SDS011;10465;42.686;23.364;2023-02-22T17:06:48;12.55;;;7.85;;
20611;SDS011;10465;42.686;23.364;2023-02-22T17:09:14;11.45;;;8.00;;
20611;SDS011;10465;42.686;23.364;2023-02-22T17:11:39;12.27;;;8.00;;
20611;SDS011;10465;42.686;23.364;2023-02-22T17:14:06;14.35;;;8.18;;
20611;SDS011;10465;42.686;23.364;2023-02-22T17:16:34;11.02;;;8.30;;
20611;SDS011;10465;42.686;23.364;2023-02-22T17:18:59;14.73;;;9.32;;
20611;SDS011;10465;42.686;23.364;2023-02-22T17:21:25;17.80;;;11.27;;
20611;SDS011;10465;42.686;23.364;2023-02-22T17:23:50;16.25;;;11.50;;
20611;SDS011;10465;42.686;23.364;2023-02-22T17:26:16;19.33;;;11.55;;
20611;SDS011;10465;42.686;23.364;2023-02-22T17:28:42;17.30;;;11.63;;
20611;SDS011;10465;42.686;23.364;2023-02-22T17:31:26;22.10;;;12.23;;
20611;SDS011;10465;42.686;23.364;2023-02-22T17:33:55;19.90;;;12.65;;
20611;SDS011;10465;42.686;23.364;2023-02-22T17:36:28;23.13;;;13.77;;
20611;SDS011;10465;42.686;23.364;2023-02-22T17:38:54;21.30;;;12.30;;
20611;SDS011;10465;42.686;23.364;2023-02-22T17:41:20;17.90;;;11.93;;
20611;SDS011;10465;42.686;23.364;2023-02-22T17:43:46;17.63;;;11.85;;
20611;SDS011;10465;42.686;23.364;2023-02-22T17:46:11;19.75;;;12.70;;
20611;SDS011;10465;42.686;23.364;2023-02-22T17:48:37;20.17;;;11.43;;
20611;SDS011;10465;42.686;23.364;2023-02-22T17:51:07;20.38;;;12.85;;
20611;SDS011;10465;42.686;23.364;2023-02-22T17:53:35;17.23;;;11.35;;
20611;SDS011;10465;42.686;23.364;2023-02-22T17:56:10;23.23;;;13.25;;